Time;durP1;ratioP1;P1;durP2;ratioP2;P2;SDS_P1;SDS_P2;PMS_P1;PMS_P2;Temp;Humidity;BMP_temperature;BMP_pressure;BME280_temperature;BME280_humidity;BME280_pressure;Samples;Min_cycle;Max_cycle;Signal;HPM_P1;HPM_P2
2022/05/31 00:01:43;;;;;;;3.20;2.10;;;8.10;98.80;;;;;;5028192;28;20058;-78
2022/05/31 00:04:09;;;;;;;2.72;1.98;;;8.10;99.10;;;;;;5031031;28;20033;-78
2022/05/31 00:06:34;;;;;;;2.25;1.83;;;8.00;99.00;;;;;;5029360;28;20033;-78
2022/05/31 00:09:00;;;;;;;2.28;1.90;;;8.00;98.20;;;;;;5027826;28;20072;-78
2022/05/31 00:11:26;;;;;;;3.40;2.38;;;8.00;98.30;;;;;;5034130;28;20049;-79
2022/05/31 00:13:52;;;;;;;3.13;2.00;;;7.80;98.70;;;;;;5031790;28;20034;-78
2022/05/31 00:16:17;;;;;;;5.82;2.42;;;7.80;98.10;;;;;;5037829;28;20033;-78
2022/05/31 00:18:43;;;;;;;6.57;2.53;;;7.90;99.30;;;;;;5042431;28;20083;-78
2022/05/31 00:21:09;;;;;;;2.92;2.00;;;7.90;99.90;;;;;;5037925;28;20087;-78
2022/05/31 00:23:37;;;;;;;3.08;2.45;;;7.80;99.90;;;;;;5041599;28;20041;-80
2022/05/31 00:26:03;;;;;;;3.45;2.58;;;7.80;99.90;;;;;;5032407;28;20026;-79
2022/05/31 00:28:29;;;;;;;3.03;2.13;;;7.80;99.00;;;;;;5039646;28;20026;-78
2022/05/31 00:30:54;;;;;;;4.40;2.00;;;7.80;99.90;;;;;;5028120;28;20030;-78
2022/05/31 00:33:20;;;;;;;3.92;2.10;;;7.70;99.90;;;;;;5036771;28;20033;-77
2022/05/31 00:35:48;;;;;;;1.70;1.60;;;7.70;99.90;;;;;;5032951;28;20040;-81
2022/05/31 00:38:16;;;;;;;4.03;1.88;;;7.50;99.90;;;;;;5031339;28;20029;-78
2022/05/31 00:40:41;;;;;;;3.05;1.70;;;7.50;99.90;;;;;;5026235;28;20048;-77
2022/05/31 00:43:10;;;;;;;3.03;2.38;;;7.50;99.90;;;;;;5027095;28;20037;-78
2022/05/31 00:45:57;;;;;;;4.20;2.28;;;7.60;99.90;;;;;;5033784;28;20021;-78
2022/05/31 00:48:33;;;;;;;4.03;1.90;;;7.60;99.90;;;;;;5043857;28;20025;-78
2022/05/31 00:51:07;;;;;;;2.58;2.30;;;7.60;99.90;;;;;;5041852;28;20041;-78
2022/05/31 00:53:37;;;;;;;2.80;2.42;;;7.60;99.90;;;;;;5036933;28;20033;-80
2022/05/31 00:56:12;;;;;;;4.05;2.20;;;7.60;99.90;;;;;;5041598;28;20029;-78
2022/05/31 00:58:43;;;;;;;3.15;2.50;;;7.60;99.90;;;;;;5041922;28;20150;-78
2022/05/31 01:01:12;;;;;;;2.95;2.08;;;7.50;99.90;;;;;;5037106;28;20397;-78
2022/05/31 01:03:40;;;;;;;2.78;2.13;;;7.60;99.90;;;;;;5040455;28;20031;-79
2022/05/31 01:06:07;;;;;;;2.40;2.15;;;7.50;99.90;;;;;;5032006;28;20556;-77
2022/05/31 01:08:35;;;;;;;4.72;2.47;;;7.50;99.90;;;;;;5040548;28;20033;-78
2022/05/31 01:11:01;;;;;;;2.78;2.08;;;7.40;99.90;;;;;;5033966;28;20460;-78
2022/05/31 01:13:28;;;;;;;4.18;2.40;;;7.40;99.90;;;;;;5030947;28;20029;-79
2022/05/31 01:16:03;;;;;;;3.13;2.10;;;7.50;99.90;;;;;;5024193;28;20041;-79
2022/05/31 01:18:29;;;;;;;2.90;2.55;;;7.50;99.90;;;;;;5041784;28;20029;-79
2022/05/31 01:20:55;;;;;;;3.75;2.28;;;7.40;99.90;;;;;;5045131;28;20064;-80
2022/05/31 01:23:24;;;;;;;3.53;2.70;;;7.40;99.90;;;;;;5038069;28;20065;-81
2022/05/31 01:26:10;;;;;;;2.28;1.98;;;7.30;99.90;;;;;;5021272;28;20029;-78
2022/05/31 01:29:04;;;;;;;3.90;2.10;;;7.20;99.90;;;;;;5041702;28;20107;-79
2022/05/31 01:31:36;;;;;;;4.85;2.45;;;7.20;99.90;;;;;;5034732;28;20481;-79
2022/05/31 01:34:18;;;;;;;3.47;2.53;;;7.20;99.90;;;;;;5035207;28;20122;-79
2022/05/31 01:36:50;;;;;;;3.70;2.33;;;7.10;99.90;;;;;;5031663;28;20026;-80
2022/05/31 01:39:19;;;;;;;2.95;2.53;;;7.10;99.90;;;;;;5037478;28;20113;-79
2022/05/31 01:42:27;;;;;;;3.63;2.70;;;7.20;99.90;;;;;;5044901;28;20444;-78
2022/05/31 01:45:06;;;;;;;4.03;2.47;;;7.30;99.90;;;;;;5010049;28;20040;-79
2022/05/31 01:47:33;;;;;;;4.00;2.80;;;7.30;99.90;;;;;;5008350;28;20113;-80
2022/05/31 01:49:59;;;;;;;4.82;2.72;;;7.40;99.90;;;;;;5024919;28;20041;-80
2022/05/31 01:52:26;;;;;;;4.03;2.75;;;7.50;99.90;;;;;;5042014;28;20027;-79
2022/05/31 01:54:53;;;;;;;3.33;2.78;;;7.50;99.90;;;;;;5026297;28;20497;-79
2022/05/31 01:57:23;;;;;;;3.83;2.40;;;7.50;99.90;;;;;;5042264;28;20108;-78
2022/05/31 02:00:00;;;;;;;3.20;2.22;;;7.50;99.90;;;;;;5030180;28;20107;-79
2022/05/31 02:02:26;;;;;;;5.85;2.88;;;7.50;99.90;;;;;;5035816;28;20141;-78
2022/05/31 02:04:51;;;;;;;4.03;2.88;;;7.50;99.90;;;;;;5038611;28;20028;-78
2022/05/31 02:07:23;;;;;;;4.80;2.53;;;7.50;99.90;;;;;;5031971;28;20033;-76
2022/05/31 02:09:51;;;;;;;2.80;2.50;;;7.50;99.90;;;;;;5061911;28;20021;-78
2022/05/31 02:12:19;;;;;;;4.20;3.20;;;7.40;99.90;;;;;;5028250;28;20026;-78
2022/05/31 02:14:45;;;;;;;3.47;2.95;;;7.40;99.90;;;;;;5033911;28;20538;-77
2022/05/31 02:17:11;;;;;;;4.35;2.55;;;7.40;99.90;;;;;;5044843;28;20021;-78
2022/05/31 02:19:38;;;;;;;3.28;2.67;;;7.40;99.90;;;;;;5045039;28;20117;-78
2022/05/31 02:22:09;;;;;;;4.43;3.35;;;7.40;99.90;;;;;;5040609;28;20550;-77
2022/05/31 02:24:35;;;;;;;7.07;3.17;;;7.30;99.90;;;;;;5057442;28;20029;-77
2022/05/31 02:27:02;;;;;;;4.60;3.30;;;7.30;99.90;;;;;;5039682;28;20072;-77
2022/05/31 02:29:30;;;;;;;4.00;3.30;;;7.30;99.90;;;;;;5038778;28;20068;-78
2022/05/31 02:31:59;;;;;;;3.83;3.00;;;7.30;99.90;;;;;;5033529;28;20045;-78
2022/05/31 02:34:28;;;;;;;3.38;2.80;;;7.20;99.90;;;;;;5038791;28;20064;-77
2022/05/31 02:36:54;;;;;;;5.40;2.83;;;7.20;99.90;;;;;;5037324;28;20052;-78
2022/05/31 02:39:20;;;;;;;3.72;3.05;;;7.20;99.90;;;;;;5032248;28;20499;-76
2022/05/31 02:41:47;;;;;;;3.70;2.85;;;7.30;99.90;;;;;;5034361;28;20041;-78
2022/05/31 02:44:13;;;;;;;5.07;2.67;;;7.20;99.90;;;;;;5034087;28;20056;-77
2022/05/31 02:46:40;;;;;;;3.78;3.15;;;7.30;99.90;;;;;;5046178;28;20060;-78
2022/05/31 02:49:06;;;;;;;4.88;3.58;;;7.30;99.90;;;;;;5036099;28;20068;-78
2022/05/31 02:51:41;;;;;;;5.47;3.45;;;7.30;99.90;;;;;;5036695;28;20021;-82
2022/05/31 02:54:07;;;;;;;5.03;2.78;;;7.30;99.90;;;;;;5042873;28;20034;-78
2022/05/31 02:56:33;;;;;;;4.25;3.33;;;7.30;99.90;;;;;;5039643;28;20082;-78
2022/05/31 02:58:59;;;;;;;4.20;3.28;;;7.30;99.90;;;;;;5036283;28;20462;-78
2022/05/31 03:01:28;;;;;;;6.22;3.80;;;7.30;99.90;;;;;;5033871;28;20051;-78
2022/05/31 03:03:54;;;;;;;6.00;3.20;;;7.30;99.90;;;;;;5034671;28;20120;-78
2022/05/31 03:06:21;;;;;;;4.25;3.00;;;7.30;99.90;;;;;;5029098;28;20596;-78
2022/05/31 03:08:47;;;;;;;5.78;3.60;;;7.30;99.90;;;;;;5032890;28;20124;-77
2022/05/31 03:11:20;;;;;;;4.85;3.08;;;7.30;99.90;;;;;;5027154;28;20104;-78
2022/05/31 03:13:47;;;;;;;5.93;3.53;;;7.30;99.90;;;;;;5048392;28;20041;-77
2022/05/31 03:16:14;;;;;;;4.47;3.33;;;7.20;99.90;;;;;;5044760;28;20033;-78
2022/05/31 03:18:46;;;;;;;7.15;3.45;;;7.20;99.90;;;;;;5042371;28;20037;-77
2022/05/31 03:21:22;;;;;;;4.40;3.55;;;7.10;99.90;;;;;;5033288;28;20059;-77
2022/05/31 03:23:57;;;;;;;7.32;3.90;;;7.10;99.90;;;;;;5037625;28;20357;-78
2022/05/31 03:26:26;;;;;;;5.65;3.38;;;7.10;99.90;;;;;;5038699;28;20093;-77
2022/05/31 03:28:51;;;;;;;5.03;3.60;;;7.10;99.90;;;;;;5038862;28;20036;-79
2022/05/31 03:31:17;;;;;;;4.13;3.30;;;7.00;99.90;;;;;;5032376;28;20037;-79
2022/05/31 03:33:43;;;;;;;5.25;3.30;;;6.90;99.90;;;;;;5028900;28;20045;-79
2022/05/31 03:36:11;;;;;;;4.78;3.30;;;6.90;99.90;;;;;;5033963;28;20507;-78
2022/05/31 03:38:37;;;;;;;4.03;3.28;;;6.90;99.90;;;;;;5013851;28;20083;-78
2022/05/31 03:41:03;;;;;;;4.05;3.25;;;6.80;99.90;;;;;;5035721;28;20042;-78
2022/05/31 03:43:32;;;;;;;3.72;2.92;;;6.80;99.90;;;;;;5020453;28;20074;-79
2022/05/31 03:45:58;;;;;;;4.72;3.63;;;6.70;99.90;;;;;;5046156;28;20032;-79
2022/05/31 03:48:24;;;;;;;4.70;3.90;;;6.70;99.90;;;;;;5040912;28;20038;-79
2022/05/31 03:51:00;;;;;;;4.90;3.42;;;6.70;99.90;;;;;;5025804;28;20036;-79
2022/05/31 03:53:26;;;;;;;4.32;3.30;;;6.70;99.90;;;;;;5040802;28;20491;-80
2022/05/31 03:55:52;;;;;;;4.10;3.20;;;6.70;99.90;;;;;;5033350;28;20044;-78
2022/05/31 03:58:18;;;;;;;4.40;3.42;;;6.40;99.90;;;;;;5038717;28;20040;-78
2022/05/31 04:00:44;;;;;;;4.18;3.28;;;6.60;99.90;;;;;;5032526;28;20048;-79
2022/05/31 04:03:09;;;;;;;6.30;4.05;;;6.70;99.90;;;;;;5034824;28;20419;-79
2022/05/31 04:05:35;;;;;;;4.05;3.50;;;6.90;99.90;;;;;;5044727;28;20515;-80
2022/05/31 04:08:04;;;;;;;6.55;4.50;;;7.30;99.90;;;;;;5032461;28;20052;-77
2022/05/31 04:10:30;;;;;;;5.07;3.35;;;7.40;99.90;;;;;;5013345;28;20025;-77
2022/05/31 04:12:56;;;;;;;4.72;3.65;;;7.50;99.90;;;;;;5028434;28;20033;-77
2022/05/31 04:15:22;;;;;;;7.80;3.78;;;7.50;99.90;;;;;;5045989;28;20535;-77
2022/05/31 04:17:47;;;;;;;4.68;3.03;;;7.70;99.90;;;;;;5042680;28;20036;-78
2022/05/31 04:20:13;;;;;;;5.70;3.88;;;7.80;99.90;;;;;;5041322;28;20416;-78
2022/05/31 04:22:38;;;;;;;4.82;3.58;;;7.80;99.90;;;;;;5042698;28;20059;-78
2022/05/31 04:25:05;;;;;;;5.95;3.40;;;7.80;99.90;;;;;;5033561;28;20589;-77
2022/05/31 04:27:31;;;;;;;5.68;3.65;;;7.90;99.90;;;;;;5038526;28;20022;-79
2022/05/31 04:29:57;;;;;;;4.85;3.85;;;7.90;99.90;;;;;;5031186;28;20037;-79
2022/05/31 04:32:23;;;;;;;6.85;3.90;;;8.00;99.90;;;;;;5031956;28;20113;-78
2022/05/31 04:34:49;;;;;;;6.38;3.83;;;8.10;99.90;;;;;;5035209;28;20069;-77
2022/05/31 04:37:15;;;;;;;5.53;3.38;;;8.30;99.90;;;;;;5029219;28;20036;-77
2022/05/31 04:39:41;;;;;;;7.45;3.65;;;8.60;99.90;;;;;;5032699;28;20033;-77
2022/05/31 04:42:10;;;;;;;5.85;3.45;;;8.60;99.90;;;;;;5014703;28;20040;-78
2022/05/31 04:44:37;;;;;;;5.25;3.92;;;8.90;99.90;;;;;;5036959;28;20028;-78
2022/05/31 04:47:03;;;;;;;6.20;4.13;;;8.90;99.90;;;;;;5042051;28;20144;-78
2022/05/31 04:49:29;;;;;;;6.70;3.70;;;8.90;99.90;;;;;;5039683;28;20029;-78
2022/05/31 04:51:55;;;;;;;4.75;3.35;;;9.10;99.90;;;;;;5033228;28;20516;-77
2022/05/31 04:54:23;;;;;;;5.32;3.78;;;9.00;99.90;;;;;;5030954;28;20017;-77
2022/05/31 04:56:50;;;;;;;6.35;4.72;;;9.00;99.90;;;;;;5034574;28;20040;-78
2022/05/31 04:59:17;;;;;;;4.70;4.10;;;8.90;99.90;;;;;;5027382;28;20120;-77
2022/05/31 05:01:43;;;;;;;6.50;3.78;;;8.80;99.90;;;;;;5030536;28;20048;-84
2022/05/31 05:04:10;;;;;;;5.32;3.95;;;8.80;99.90;;;;;;5030509;28;20052;-82
2022/05/31 05:06:36;;;;;;;6.05;4.03;;;8.90;99.90;;;;;;5028229;28;20121;-80
2022/05/31 05:09:02;;;;;;;4.43;3.80;;;8.80;99.90;;;;;;5031928;28;20107;-87
2022/05/31 05:11:27;;;;;;;7.00;4.03;;;8.80;99.90;;;;;;5022208;28;20099;-80
2022/05/31 05:13:56;;;;;;;4.53;3.90;;;9.00;99.90;;;;;;5034252;28;20037;-84
2022/05/31 05:16:22;;;;;;;7.40;3.63;;;9.30;99.90;;;;;;5027877;28;20326;-82
2022/05/31 05:18:48;;;;;;;7.07;4.47;;;9.60;99.90;;;;;;5032431;28;20634;-82
2022/05/31 05:21:15;;;;;;;7.13;3.58;;;9.50;99.90;;;;;;5034542;28;20037;-81
2022/05/31 05:23:41;;;;;;;5.78;4.13;;;9.60;99.90;;;;;;5018122;28;20083;-82
2022/05/31 05:26:08;;;;;;;6.47;3.92;;;9.60;99.90;;;;;;5026160;28;20032;-81
2022/05/31 05:31:33;;;;;;;4.97;3.72;;;9.60;99.90;;;;;;5020241;28;20055;-80
2022/05/31 05:34:02;;;;;;;5.28;4.10;;;9.60;99.90;;;;;;5018655;28;20242;-75
2022/05/31 05:36:29;;;;;;;5.90;3.80;;;9.50;99.90;;;;;;5020954;28;20053;-80
2022/05/31 05:38:56;;;;;;;5.28;3.78;;;9.50;99.90;;;;;;5032434;28;20264;-79
2022/05/31 05:41:23;;;;;;;4.65;3.25;;;9.50;99.90;;;;;;5030151;28;20033;-78
2022/05/31 05:43:49;;;;;;;4.97;3.72;;;9.50;99.90;;;;;;5040509;28;20037;-77
2022/05/31 05:46:17;;;;;;;6.88;4.25;;;9.50;99.90;;;;;;5029838;28;20032;-82
2022/05/31 05:48:43;;;;;;;5.53;4.07;;;9.50;99.90;;;;;;5029531;28;20110;-82
2022/05/31 05:51:22;;;;;;;9.95;4.05;;;9.60;99.90;;;;;;5033874;28;20048;-81
2022/05/31 05:53:48;;;;;;;5.28;3.45;;;9.50;99.90;;;;;;5038732;28;20029;-81
2022/05/31 05:56:14;;;;;;;5.25;3.40;;;9.60;99.90;;;;;;5021950;28;20025;-80
2022/05/31 05:58:41;;;;;;;4.55;3.25;;;9.60;99.90;;;;;;5034675;28;20068;-81
2022/05/31 06:01:17;;;;;;;5.95;3.50;;;9.70;99.90;;;;;;5037954;28;20049;-80
2022/05/31 06:03:57;;;;;;;4.05;3.30;;;9.70;99.90;;;;;;5035538;28;20051;-87
2022/05/31 06:06:24;;;;;;;7.38;3.83;;;9.90;99.90;;;;;;5031589;28;20175;-81
2022/05/31 06:08:55;;;;;;;4.32;3.63;;;9.80;99.90;;;;;;5028452;28;20075;-82
2022/05/31 06:11:30;;;;;;;5.15;4.13;;;10.10;99.90;;;;;;5030491;28;20033;-80
2022/05/31 06:14:13;;;;;;;6.50;4.53;;;10.20;99.90;;;;;;5039323;28;20071;-88
2022/05/31 06:16:44;;;;;;;5.53;3.63;;;10.70;99.90;;;;;;5033115;28;20871;-84
2022/05/31 06:19:14;;;;;;;7.70;4.35;;;11.10;97.30;;;;;;5037346;28;20665;-81
2022/05/31 06:21:41;;;;;;;5.22;3.85;;;11.30;97.50;;;;;;5039210;28;20091;-81
2022/05/31 06:24:06;;;;;;;6.65;4.13;;;11.40;95.90;;;;;;5027906;28;20064;-81
2022/05/31 06:26:32;;;;;;;5.90;3.95;;;11.10;95.70;;;;;;5034984;28;20438;-84
2022/05/31 06:28:58;;;;;;;4.97;3.55;;;11.30;95.30;;;;;;5033792;28;20029;-80
2022/05/31 06:31:23;;;;;;;5.05;4.05;;;11.30;95.80;;;;;;5026357;28;20361;-82
2022/05/31 06:33:49;;;;;;;5.47;3.97;;;10.80;97.30;;;;;;5025823;28;20531;-82
2022/05/31 06:36:15;;;;;;;5.88;4.05;;;10.70;97.30;;;;;;5034356;28;20033;-83
2022/05/31 06:38:41;;;;;;;4.82;4.00;;;10.70;98.50;;;;;;5032146;28;20029;-82
2022/05/31 06:41:07;;;;;;;6.80;3.90;;;11.00;96.80;;;;;;5037706;28;20574;-83
2022/05/31 06:43:34;;;;;;;4.35;3.63;;;11.40;97.60;;;;;;5033651;28;20108;-82
2022/05/31 06:46:04;;;;;;;4.57;3.25;;;11.60;95.20;;;;;;5030104;28;20061;-84
2022/05/31 06:48:30;;;;;;;5.15;3.90;;;11.90;95.20;;;;;;5033943;28;20491;-84
2022/05/31 06:50:56;;;;;;;4.80;4.03;;;12.30;93.30;;;;;;5014071;28;20113;-84
2022/05/31 06:58:50;;;;;;;8.40;3.92;;;14.10;90.90;;;;;;5029745;28;20080;-85
2022/05/31 07:01:15;;;;;;;4.20;3.50;;;13.50;87.60;;;;;;5025660;28;20049;-85
2022/05/31 07:03:41;;;;;;;7.82;3.95;;;13.10;89.80;;;;;;5032497;28;20033;-86
2022/05/31 07:06:07;;;;;;;6.53;3.60;;;12.80;90.70;;;;;;5030799;28;20033;-86
2022/05/31 07:08:32;;;;;;;4.75;3.70;;;13.20;90.80;;;;;;5028373;28;20032;-86
2022/05/31 07:10:59;;;;;;;6.72;4.15;;;13.70;91.10;;;;;;5035935;28;20040;-86
2022/05/31 07:13:25;;;;;;;4.65;3.83;;;13.60;91.30;;;;;;5037363;28;20032;-87
2022/05/31 07:15:52;;;;;;;4.97;3.80;;;13.90;87.40;;;;;;5046008;28;20033;-87
2022/05/31 07:18:19;;;;;;;6.00;4.25;;;14.20;87.20;;;;;;5031345;28;20032;-84
2022/05/31 07:20:44;;;;;;;5.90;3.85;;;14.40;85.70;;;;;;5047479;28;20032;-85
2022/05/31 07:23:11;;;;;;;7.45;3.58;;;14.70;85.50;;;;;;5038077;28;20079;-79
2022/05/31 07:25:37;;;;;;;4.05;3.40;;;14.70;82.10;;;;;;5034181;28;20472;-77
2022/05/31 07:28:03;;;;;;;4.28;3.33;;;15.00;90.20;;;;;;5030313;28;20033;-79
2022/05/31 07:30:28;;;;;;;5.88;3.67;;;15.50;82.20;;;;;;5059042;28;20488;-79
2022/05/31 07:32:54;;;;;;;5.88;4.15;;;15.60;82.50;;;;;;5026301;28;20051;-79
2022/05/31 07:35:20;;;;;;;4.40;3.58;;;15.50;80.90;;;;;;5028529;28;20068;-79
2022/05/31 07:37:46;;;;;;;4.70;3.92;;;15.40;79.10;;;;;;5029152;28;20064;-79
2022/05/31 07:40:12;;;;;;;5.07;3.38;;;15.20;81.50;;;;;;5031043;28;20158;-80
2022/05/31 07:42:37;;;;;;;5.85;3.85;;;15.30;80.20;;;;;;5037455;28;20032;-79
2022/05/31 07:45:04;;;;;;;4.80;3.65;;;15.60;80.20;;;;;;5038083;28;20037;-78
2022/05/31 07:47:30;;;;;;;4.07;3.65;;;15.10;77.60;;;;;;5035142;28;20048;-79
2022/05/31 07:49:56;;;;;;;4.97;4.20;;;15.40;82.90;;;;;;5035703;28;20447;-79
2022/05/31 07:52:22;;;;;;;4.68;3.83;;;15.40;83.90;;;;;;5035816;28;20025;-78
2022/05/31 07:54:48;;;;;;;4.60;3.75;;;15.90;78.90;;;;;;5068323;28;20033;-79
2022/05/31 07:59:59;;;;;;;4.82;3.63;;;16.20;78.50;;;;;;5033221;28;20052;-80
2022/05/31 08:02:25;;;;;;;4.63;3.78;;;16.60;79.30;;;;;;5027410;28;20067;-78
2022/05/31 08:04:50;;;;;;;5.50;3.65;;;16.40;77.90;;;;;;5017634;28;20623;-79
2022/05/31 08:07:16;;;;;;;4.85;3.53;;;16.80;76.10;;;;;;5027894;28;20068;-78
2022/05/31 08:09:42;;;;;;;5.43;3.30;;;16.80;74.00;;;;;;5034628;28;20763;-79
2022/05/31 08:12:10;;;;;;;6.03;3.80;;;16.80;75.50;;;;;;5040612;28;20439;-79
2022/05/31 08:14:36;;;;;;;4.03;3.40;;;16.60;75.10;;;;;;5033530;28;20029;-79
2022/05/31 08:17:03;;;;;;;5.55;3.22;;;16.60;80.70;;;;;;5033694;28;20090;-79
2022/05/31 08:19:29;;;;;;;5.63;3.40;;;16.90;67.30;;;;;;5031976;28;20171;-79
2022/05/31 08:21:56;;;;;;;3.90;2.88;;;17.00;71.90;;;;;;5035263;28;20033;-78
2022/05/31 08:24:23;;;;;;;4.45;3.03;;;17.30;68.40;;;;;;5036225;28;20032;-78
2022/05/31 08:26:48;;;;;;;5.68;3.35;;;17.40;67.50;;;;;;5030885;28;20033;-91
2022/05/31 08:29:14;;;;;;;3.67;3.30;;;17.70;66.10;;;;;;5029458;28;20029;-83
2022/05/31 08:31:40;;;;;;;4.88;3.53;;;17.90;64.10;;;;;;5032532;28;20206;-78
2022/05/31 08:34:07;;;;;;;4.05;3.65;;;18.10;64.70;;;;;;5024148;28;20021;-80
2022/05/31 08:36:33;;;;;;;4.32;3.55;;;18.00;68.20;;;;;;5026962;28;20485;-81
2022/05/31 08:38:59;;;;;;;3.88;3.47;;;17.90;67.10;;;;;;5064885;28;20025;-82
2022/05/31 08:41:32;;;;;;;6.65;3.40;;;18.00;72.10;;;;;;5005062;28;20091;-78
2022/05/31 08:44:07;;;;;;;3.85;3.38;;;18.40;65.60;;;;;;5039245;28;20020;-80
2022/05/31 08:46:47;;;;;;;4.97;3.63;;;18.20;63.30;;;;;;5039417;28;20515;-79
2022/05/31 08:49:17;;;;;;;3.40;3.05;;;18.50;64.90;;;;;;5034874;28;20099;-80
2022/05/31 08:52:03;;;;;;;4.70;3.15;;;18.50;64.30;;;;;;5025628;28;20440;-79
2022/05/31 08:57:36;;;;;;;4.70;3.97;;;18.90;62.80;;;;;;5033583;28;20523;-80
2022/05/31 09:00:11;;;;;;;4.53;3.75;;;18.70;62.00;;;;;;5025943;28;20043;-82
2022/05/31 09:02:58;;;;;;;3.97;3.40;;;19.10;64.90;;;;;;5027955;28;20038;-79
2022/05/31 09:05:31;;;;;;;6.18;3.40;;;18.90;57.60;;;;;;5051357;28;20480;-82
2022/05/31 09:08:24;;;;;;;4.57;3.40;;;19.30;64.60;;;;;;5029241;28;20095;-77
2022/05/31 09:11:08;;;;;;;3.88;2.83;;;19.50;60.50;;;;;;5032897;28;20052;-77
2022/05/31 09:13:46;;;;;;;5.00;3.00;;;19.70;60.60;;;;;;5039953;28;20169;-79
2022/05/31 09:17:14;;;;;;;3.65;2.80;;;19.80;58.50;;;;;;5036599;28;20025;-78
2022/05/31 09:20:00;;;;;;;3.97;2.78;;;19.90;54.10;;;;;;4973531;28;20122;-79
2022/05/31 09:22:26;;;;;;;5.45;3.67;;;20.20;54.70;;;;;;5036641;28;20060;-78
2022/05/31 09:24:51;;;;;;;6.50;3.78;;;20.10;58.90;;;;;;5039976;28;20547;-78
2022/05/31 09:27:49;;;;;;;4.30;3.03;;;20.10;58.20;;;;;;5024443;28;20033;-77
2022/05/31 09:30:22;;;;;;;4.38;3.33;;;20.10;55.70;;;;;;5032173;28;20060;-78
2022/05/31 09:33:27;;;;;;;3.60;3.03;;;20.40;55.50;;;;;;5028818;28;20033;-85
2022/05/31 09:36:26;;;;;;;3.28;2.85;;;20.60;59.20;;;;;;5032928;28;20488;-80
2022/05/31 09:39:13;;;;;;;4.95;3.50;;;21.10;52.70;;;;;;5026997;28;20794;-85
2022/05/31 09:41:48;;;;;;;6.15;3.70;;;21.10;51.20;;;;;;5038052;28;20056;-78
2022/05/31 09:44:20;;;;;;;3.42;2.70;;;21.60;53.40;;;;;;5041655;28;20026;-78
2022/05/31 09:47:19;;;;;;;3.83;2.95;;;21.70;49.80;;;;;;5044292;28;20076;-82
2022/05/31 09:49:47;;;;;;;2.75;2.55;;;21.70;51.00;;;;;;5016005;28;20037;-78
2022/05/31 09:52:30;;;;;;;3.83;2.58;;;21.70;52.60;;;;;;5034453;28;20076;-77
2022/05/31 09:58:08;;;;;;;6.28;3.00;;;21.90;48.80;;;;;;5039047;28;20372;-79
2022/05/31 10:00:35;;;;;;;3.58;2.00;;;22.60;50.90;;;;;;5031733;28;20139;-78
2022/05/31 10:03:10;;;;;;;3.00;2.70;;;22.60;52.10;;;;;;5043837;28;20026;-77
2022/05/31 10:05:37;;;;;;;3.63;1.98;;;22.20;47.20;;;;;;5036508;28;20117;-78
2022/05/31 10:08:11;;;;;;;2.63;2.17;;;22.50;48.00;;;;;;5030986;28;20036;-79
2022/05/31 10:10:43;;;;;;;4.32;2.17;;;22.60;46.10;;;;;;5026495;28;20186;-77
2022/05/31 10:13:09;;;;;;;3.60;2.53;;;22.70;43.40;;;;;;5043752;28;20044;-80
2022/05/31 10:15:41;;;;;;;3.30;2.47;;;22.80;48.50;;;;;;5043701;28;20100;-79
2022/05/31 10:18:11;;;;;;;4.70;2.78;;;22.50;49.20;;;;;;5030660;28;20103;-81
2022/05/31 10:20:37;;;;;;;3.42;2.40;;;22.70;46.40;;;;;;5026555;28;20038;-78
2022/05/31 10:23:04;;;;;;;4.22;2.88;;;22.90;48.80;;;;;;5024843;28;20679;-77
2022/05/31 10:25:43;;;;;;;4.05;2.90;;;23.10;50.30;;;;;;5029205;28;20033;-79
2022/05/31 10:28:22;;;;;;;6.00;2.60;;;22.50;48.10;;;;;;5023518;28;20106;-79
2022/05/31 10:31:03;;;;;;;2.30;2.10;;;23.00;47.20;;;;;;5026292;28;20037;-78
2022/05/31 10:33:31;;;;;;;2.90;2.50;;;23.20;42.70;;;;;;5031953;28;20030;-84
2022/05/31 10:36:25;;;;;;;5.68;2.00;;;22.20;40.10;;;;;;5029030;28;20091;-80
2022/05/31 10:38:51;;;;;;;2.22;2.05;;;22.80;42.50;;;;;;5021954;28;20038;-79
2022/05/31 10:41:19;;;;;;;3.67;2.00;;;22.30;44.20;;;;;;5033005;28;20503;-84
2022/05/31 10:43:51;;;;;;;1.83;1.60;;;22.90;43.80;;;;;;5045674;28;20457;-80
2022/05/31 10:46:25;;;;;;;3.35;1.88;;;23.40;41.00;;;;;;5046345;28;20115;-80
2022/05/31 10:48:56;;;;;;;3.85;2.17;;;22.90;38.10;;;;;;5039988;28;20076;-81
2022/05/31 10:51:34;;;;;;;3.03;1.65;;;23.10;39.90;;;;;;5035948;28;20032;-77
2022/05/31 10:54:18;;;;;;;1.90;1.60;;;23.10;41.30;;;;;;5037922;28;20025;-79
2022/05/31 10:57:21;;;;;;;2.15;1.58;;;23.10;37.70;;;;;;5037606;28;20033;-80
2022/05/31 10:59:55;;;;;;;1.92;1.35;;;23.90;39.30;;;;;;5025970;28;20049;-80
2022/05/31 11:02:35;;;;;;;2.50;1.52;;;24.60;39.20;;;;;;5030484;28;20107;-83
2022/05/31 11:05:14;;;;;;;5.60;1.77;;;25.80;36.10;;;;;;5020477;28;20021;-81
2022/05/31 11:14:11;;;;;;;3.55;1.98;;;27.50;37.30;;;;;;5044738;28;20114;-81
2022/05/31 11:16:46;;;;;;;4.43;1.65;;;27.10;33.30;;;;;;5040395;28;20423;-82
2022/05/31 11:19:33;;;;;;;1.90;1.70;;;27.10;30.00;;;;;;5033118;28;20805;-81
2022/05/31 11:22:22;;;;;;;1.55;1.45;;;27.00;31.30;;;;;;5031958;28;20077;-81
2022/05/31 11:24:48;;;;;;;2.33;1.70;;;26.70;34.80;;;;;;5033562;28;20494;-84
2022/05/31 11:27:55;;;;;;;3.70;1.90;;;26.90;37.10;;;;;;5031972;28;20038;-88
2022/05/31 11:30:25;;;;;;;2.85;1.60;;;27.90;33.90;;;;;;5005885;28;20065;-82
2022/05/31 11:33:27;;;;;;;1.67;1.58;;;27.70;33.70;;;;;;5032291;28;20104;-85
2022/05/31 11:35:56;;;;;;;2.38;1.70;;;27.80;29.70;;;;;;5031193;28;20022;-84
2022/05/31 11:38:25;;;;;;;3.97;1.65;;;27.50;31.00;;;;;;5020632;28;20053;-83
2022/05/31 11:40:50;;;;;;;2.73;1.60;;;27.30;28.60;;;;;;5024687;28;20039;-84
2022/05/31 11:43:41;;;;;;;2.60;1.60;;;26.40;32.10;;;;;;5034688;28;20096;-86
2022/05/31 11:46:12;;;;;;;5.78;1.65;;;26.70;31.40;;;;;;5025441;28;20028;-84
2022/05/31 11:48:58;;;;;;;4.47;1.65;;;27.10;30.00;;;;;;5033332;28;20377;-84
2022/05/31 11:52:11;;;;;;;2.45;1.70;;;28.00;30.60;;;;;;5032184;28;20078;-83
2022/05/31 11:55:25;;;;;;;3.65;1.95;;;27.40;29.30;;;;;;5032545;28;20034;-85
2022/05/31 11:57:49;;;;;;;2.92;1.90;;;25.90;32.10;;;;;;5026132;28;20125;-81
2022/05/31 12:00:16;;;;;;;3.50;1.90;;;25.00;36.30;;;;;;5026419;28;20519;-79
2022/05/31 12:02:55;;;;;;;2.42;1.63;;;23.80;36.30;;;;;;5031669;28;20045;-81
2022/05/31 12:05:37;;;;;;;2.80;1.47;;;23.50;34.70;;;;;;5034757;28;20135;-79
2022/05/31 12:08:09;;;;;;;4.57;1.73;;;22.60;38.20;;;;;;5025785;28;20025;-80
2022/05/31 12:10:58;;;;;;;2.85;1.50;;;22.50;37.70;;;;;;5026269;28;20033;-85
2022/05/31 12:13:25;;;;;;;1.90;1.75;;;22.50;39.00;;;;;;5039014;28;20028;-82
2022/05/31 12:15:53;;;;;;;3.65;1.77;;;22.30;37.60;;;;;;5039006;28;20048;-79
2022/05/31 12:18:45;;;;;;;2.58;1.65;;;22.20;36.40;;;;;;5037268;28;20080;-82
2022/05/31 12:21:16;;;;;;;4.40;2.35;;;22.20;41.00;;;;;;5035180;28;20588;-84
2022/05/31 12:23:46;;;;;;;2.90;1.95;;;21.90;40.70;;;;;;5031825;28;20083;-82
2022/05/31 12:26:29;;;;;;;5.20;2.08;;;21.30;41.00;;;;;;5031884;28;20262;-85
2022/05/31 12:29:21;;;;;;;3.72;2.28;;;20.80;41.80;;;;;;5026129;28;20042;-83
2022/05/31 12:31:47;;;;;;;3.55;2.00;;;20.60;44.60;;;;;;5020077;28;20095;-83
2022/05/31 12:34:18;;;;;;;2.75;2.00;;;20.30;45.60;;;;;;5023241;28;20030;-82
2022/05/31 12:37:08;;;;;;;3.70;2.05;;;20.40;46.90;;;;;;5024123;28;20057;-84
2022/05/31 12:39:35;;;;;;;3.55;2.00;;;20.00;46.10;;;;;;5031176;28;20033;-82
2022/05/31 12:42:27;;;;;;;3.15;1.95;;;19.50;48.20;;;;;;5040813;28;20037;-82
2022/05/31 12:45:25;;;;;;;2.22;1.60;;;19.30;47.00;;;;;;5027876;28;20493;-81
2022/05/31 12:47:57;;;;;;;2.88;1.98;;;19.20;48.80;;;;;;5039211;28;20048;-83
2022/05/31 12:50:43;;;;;;;4.07;2.00;;;18.50;56.50;;;;;;5040604;28;20651;-80
2022/05/31 12:53:20;;;;;;;5.93;1.90;;;18.10;58.30;;;;;;5036857;28;20030;-81
2022/05/31 12:55:46;;;;;;;2.97;1.73;;;18.00;62.50;;;;;;5029072;28;20084;-83
2022/05/31 12:58:28;;;;;;;3.22;1.88;;;17.90;64.50;;;;;;5030606;28;20103;-82
2022/05/31 13:00:59;;;;;;;3.22;1.75;;;17.80;60.30;;;;;;5035628;28;20329;-82
2022/05/31 13:03:32;;;;;;;2.38;1.77;;;17.80;57.50;;;;;;5036074;28;20032;-82
2022/05/31 13:06:09;;;;;;;3.10;1.50;;;17.90;57.30;;;;;;5031583;28;20026;-79
2022/05/31 13:08:57;;;;;;;2.53;1.60;;;17.80;56.40;;;;;;5027583;28;20021;-79
2022/05/31 13:20:39;;;;;;;3.73;1.73;;;15.40;82.90;;;;;;5030914;28;20938;-79
2022/05/31 13:23:37;;;;;;;4.60;2.08;;;14.70;86.70;;;;;;5032590;28;20044;-79
2022/05/31 13:26:15;;;;;;;4.05;1.75;;;14.40;97.00;;;;;;5029083;28;20017;-78
2022/05/31 13:29:05;;;;;;;2.30;1.65;;;14.20;99.00;;;;;;5034134;28;20018;-84
2022/05/31 13:31:54;;;;;;;5.18;1.92;;;14.10;99.90;;;;;;5033064;28;20055;-79
2022/05/31 13:34:49;;;;;;;5.78;2.25;;;14.10;99.90;;;;;;5029956;28;20507;-80
2022/05/31 13:37:26;;;;;;;3.47;1.88;;;14.10;99.90;;;;;;5030929;28;20041;-80
2022/05/31 13:39:51;;;;;;;2.53;1.95;;;14.20;99.90;;;;;;5040350;28;20033;-80
2022/05/31 13:42:29;;;;;;;2.92;2.40;;;14.20;99.90;;;;;;5035316;28;20433;-79
2022/05/31 13:44:55;;;;;;;4.43;2.30;;;14.40;99.90;;;;;;5040028;28;20029;-79
2022/05/31 13:47:21;;;;;;;2.88;2.15;;;14.70;97.50;;;;;;5020716;28;20036;-79